createdAt,value
2019-01-19T02:21:55.082Z,83.65
2019-01-19T02:25:04.830Z,83.43
2019-01-19T02:28:16.285Z,83.53
2019-01-19T02:31:30.946Z,83.77
2019-01-19T02:34:52.330Z,84.05
2019-01-19T02:38:09.917Z,83.80
2019-01-19T02:41:17.366Z,83.57
2019-01-19T02:44:52.789Z,83.62
2019-01-19T02:48:14.219Z,83.71
2019-01-19T02:51:02.365Z,84.03
2019-01-19T02:54:27.158Z,83.93
2019-01-19T02:58:12.097Z,83.96
2019-01-19T03:01:49.421Z,84.00
2019-01-19T03:05:22.124Z,84.42
2019-01-19T03:08:37.000Z,84.56
2019-01-19T03:11:35.623Z,85.23
2019-01-19T03:14:38.455Z,85.27
2019-01-19T03:17:51.701Z,85.17
2019-01-19T03:20:44.357Z,85.05
2019-01-19T03:23:51.889Z,85.28
2019-01-19T03:26:57.782Z,85.48
2019-01-19T03:29:59.631Z,86.09
2019-01-19T03:33:14.061Z,86.06
2019-01-19T03:36:38.374Z,86.06
2019-01-19T03:40:05.632Z,86.33
2019-01-19T03:43:49.753Z,85.71
2019-01-19T03:47:06.723Z,85.44
2019-01-19T03:50:24.577Z,86.14
2019-01-19T03:53:32.347Z,86.45
2019-01-19T03:56:41.002Z,86.55
2019-01-19T04:00:06.251Z,86.94
2019-01-19T04:03:41.718Z,86.96
2019-01-19T04:06:44.089Z,87.17
2019-01-19T04:10:15.964Z,87.16
2019-01-19T04:13:19.301Z,87.16
2019-01-19T04:16:47.599Z,87.67
2019-01-19T04:20:10.918Z,87.15
2019-01-19T04:22:56.006Z,86.90
2019-01-19T04:25:51.330Z,86.68
2019-01-19T04:28:24.411Z,86.65
2019-01-19T04:30:55.104Z,87.15
2019-01-19T04:33:25.397Z,87.21
2019-01-19T04:35:55.791Z,86.90
2019-01-19T04:38:26.417Z,86.67
2019-01-19T04:40:57.009Z,86.58
2019-01-19T04:43:27.740Z,86.51
2019-01-19T04:45:58.126Z,86.44
2019-01-19T04:48:28.855Z,86.17
2019-01-19T04:50:59.423Z,86.08
2019-01-19T04:53:29.765Z,85.92
2019-01-19T04:56:00.095Z,85.74
2019-01-19T04:58:48.327Z,85.57
2019-01-19T05:01:19.142Z,85.53
2019-01-19T05:03:49.492Z,85.31
2019-01-19T05:06:20.452Z,85.23
2019-01-19T05:08:51.132Z,84.69
2019-01-19T05:11:21.859Z,84.57
2019-01-19T05:13:52.120Z,84.33
2019-01-19T05:16:22.512Z,84.53
2019-01-19T05:18:52.903Z,84.59
2019-01-19T05:21:42.864Z,84.37
2019-01-19T05:24:13.173Z,84.35
2019-01-19T05:26:43.592Z,84.18
2019-01-19T05:29:13.915Z,84.03
2019-01-19T05:31:44.233Z,84.47
2019-01-19T05:34:14.873Z,84.48
2019-01-19T05:36:45.310Z,84.66
2019-01-19T05:39:15.681Z,84.95
2019-01-19T05:41:46.147Z,84.65
2019-01-19T05:44:16.611Z,84.37
2019-01-19T05:46:47.313Z,84.50
2019-01-19T05:49:17.566Z,84.29
2019-01-19T05:51:48.001Z,84.06
2019-01-19T05:54:18.471Z,83.81
2019-01-19T05:56:48.780Z,83.36
2019-01-19T05:59:19.363Z,83.48
2019-01-19T06:01:49.865Z,83.50
2019-01-19T06:04:20.182Z,83.90
2019-01-19T06:06:50.497Z,84.15
2019-01-19T06:09:21.311Z,85.05
2019-01-19T06:11:51.978Z,84.89
2019-01-19T06:14:22.241Z,85.29
2019-01-19T06:16:52.541Z,85.54
2019-01-19T06:19:23.172Z,85.53
2019-01-19T06:21:58.744Z,85.55
2019-01-19T06:24:28.981Z,85.83
2019-01-19T06:26:59.382Z,86.37
2019-01-19T06:29:30.195Z,86.71
2019-01-19T06:32:00.525Z,86.88
2019-01-19T06:34:30.846Z,86.65
2019-01-19T06:37:01.387Z,86.45
2019-01-19T06:39:31.787Z,86.28
2019-01-19T06:42:02.149Z,86.13
2019-01-19T06:44:33.008Z,85.79
2019-01-19T06:47:03.384Z,85.73
2019-01-19T06:49:33.727Z,85.49
2019-01-19T06:52:04.239Z,85.19
2019-01-19T06:54:34.529Z,84.99
2019-01-19T06:57:04.992Z,85.11
2019-01-19T06:59:35.467Z,85.12
2019-01-19T07:02:05.852Z,84.89
2019-01-19T07:04:36.108Z,85.08
2019-01-19T07:07:06.549Z,84.93
2019-01-19T07:09:37.130Z,84.75
2019-01-19T07:12:07.872Z,84.81
2019-01-19T07:14:38.338Z,84.87
2019-01-19T07:17:09.191Z,84.62
2019-01-19T07:19:39.883Z,84.17
2019-01-19T07:22:10.407Z,84.09
2019-01-19T07:24:40.807Z,83.79
2019-01-19T07:27:11.190Z,83.54
2019-01-19T07:29:41.851Z,82.44
2019-01-19T07:32:12.188Z,82.00
2019-01-19T07:34:42.891Z,81.43
2019-01-19T07:37:13.348Z,81.75
2019-01-19T07:39:43.818Z,81.15
2019-01-19T07:42:14.689Z,81.13
2019-01-19T07:44:44.901Z,80.96
2019-01-19T07:47:15.853Z,80.66
2019-01-19T07:49:46.234Z,79.90
2019-01-19T07:52:16.865Z,79.74
2019-01-19T07:54:47.305Z,79.11
2019-01-19T07:57:17.937Z,78.12
2019-01-19T07:59:48.312Z,77.49
2019-01-19T08:02:18.768Z,76.92
2019-01-19T08:04:49.416Z,75.72
2019-01-19T08:07:20.583Z,75.32
2019-01-19T08:09:51.015Z,74.65
2019-01-19T08:12:21.406Z,73.82
2019-01-19T08:14:51.816Z,72.19
2019-01-19T08:17:22.199Z,70.27
2019-01-19T08:19:52.643Z,69.63
2019-01-19T08:22:23.057Z,66.79
2019-01-19T08:24:53.398Z,65.22
2019-01-19T08:27:23.778Z,61.53
2019-01-19T08:29:53.963Z,62.88
2019-01-19T08:32:24.390Z,61.09
2019-01-19T08:34:54.744Z,59.40
2019-01-19T08:37:25.091Z,60.61
2019-01-19T08:39:55.499Z,60.52
2019-01-19T08:42:25.854Z,59.65
2019-01-19T08:44:56.772Z,59.25
2019-01-19T08:47:27.102Z,59.39
2019-01-19T08:49:57.543Z,59.96
2019-01-19T08:52:27.897Z,61.72
2019-01-19T08:54:58.588Z,62.93
2019-01-19T08:57:29.045Z,62.50
2019-01-19T08:59:59.650Z,64.73
2019-01-19T09:02:29.949Z,68.80
2019-01-19T09:05:00.291Z,68.40
2019-01-19T09:07:33.898Z,67.78
2019-01-19T09:10:02.739Z,68.78
2019-01-19T09:12:33.246Z,66.47
2019-01-19T09:15:03.632Z,66.98
2019-01-19T09:17:33.987Z,64.38
2019-01-19T09:20:04.630Z,68.48
2019-01-19T09:22:35.012Z,68.83
2019-01-19T09:25:06.500Z,68.27
2019-01-19T09:27:37.009Z,66.68
2019-01-19T09:30:12.929Z,68.08
2019-01-19T09:32:43.494Z,67.22
2019-01-19T09:35:13.879Z,68.57
2019-01-19T09:37:44.505Z,68.85
2019-01-19T09:40:16.077Z,69.64
2019-01-19T09:42:46.723Z,68.39
2019-01-19T09:45:17.304Z,69.49
2019-01-19T09:47:47.750Z,68.76
2019-01-19T09:50:18.664Z,68.09
2019-01-19T09:52:49.176Z,67.96
2019-01-19T09:55:19.612Z,68.71
2019-01-19T09:57:50.072Z,69.15
2019-01-19T10:00:21.019Z,69.62
2019-01-19T10:02:53.490Z,66.16
2019-01-19T10:05:23.916Z,69.14
2019-01-19T10:07:54.416Z,70.28
2019-01-19T10:10:25.019Z,67.95
2019-01-19T10:12:55.718Z,68.78
2019-01-19T10:15:26.299Z,69.53
2019-01-19T10:17:57.059Z,67.20
2019-01-19T10:20:27.811Z,70.64
2019-01-19T10:22:58.340Z,71.16
2019-01-19T10:25:28.907Z,68.19
2019-01-19T10:27:59.312Z,70.88
2019-01-19T10:30:29.831Z,69.57
2019-01-19T10:33:00.431Z,70.35
2019-01-19T10:35:30.959Z,71.48
2019-01-19T10:38:26.207Z,72.54
2019-01-19T10:40:56.668Z,69.14
2019-01-19T10:43:27.093Z,70.57
2019-01-19T10:45:57.425Z,68.44
2019-01-19T10:48:27.866Z,67.61
2019-01-19T10:50:58.226Z,67.77
2019-01-19T10:53:28.541Z,71.59
2019-01-19T10:55:59.177Z,70.81
2019-01-19T10:58:29.463Z,69.27
2019-01-19T11:00:59.763Z,70.20
2019-01-19T11:03:29.884Z,68.13
2019-01-19T11:06:00.409Z,67.01
2019-01-19T11:08:31.229Z,69.78
2019-01-19T11:11:02.144Z,70.51
2019-01-19T11:13:32.757Z,69.33
2019-01-19T11:16:03.032Z,69.00
2019-01-19T11:18:33.400Z,70.02
2019-01-19T11:21:03.712Z,69.99
2019-01-19T11:23:39.713Z,67.40
2019-01-19T11:26:06.377Z,69.29
2019-01-19T11:28:36.678Z,69.31
2019-01-19T11:31:07.086Z,68.67
2019-01-19T11:33:37.550Z,67.19
2019-01-19T11:36:07.871Z,67.96
2019-01-19T11:38:38.089Z,68.59
2019-01-19T11:41:08.697Z,66.49
2019-01-19T11:43:39.197Z,68.46
2019-01-19T11:46:10.059Z,66.25
2019-01-19T11:48:40.784Z,67.68
2019-01-19T11:51:11.425Z,65.23
2019-01-19T11:53:42.306Z,66.17
2019-01-19T11:56:12.808Z,69.35
2019-01-19T11:58:43.285Z,66.24
2019-01-19T12:01:13.922Z,66.78
2019-01-19T12:03:44.461Z,66.57
2019-01-19T12:06:15.006Z,66.33
2019-01-19T12:08:45.526Z,66.61
2019-01-19T12:11:16.072Z,65.60
2019-01-19T12:13:46.674Z,66.08
2019-01-19T12:16:17.529Z,66.25
2019-01-19T12:18:48.178Z,65.72
2019-01-19T12:21:19.187Z,64.88
2019-01-19T12:23:49.663Z,63.11
2019-01-19T12:26:20.242Z,65.30
2019-01-19T12:28:50.804Z,66.78
2019-01-19T12:31:21.379Z,64.80
2019-01-19T12:33:52.444Z,66.56
2019-01-19T12:36:23.028Z,62.97
2019-01-19T12:38:53.716Z,62.82
2019-01-19T12:41:24.121Z,61.93
2019-01-19T12:43:54.748Z,56.93
2019-01-19T12:46:25.723Z,53.41
2019-01-19T12:48:56.229Z,51.78
2019-01-19T12:51:26.747Z,49.17
2019-01-19T12:53:57.299Z,48.35
2019-01-19T12:56:27.848Z,50.27
2019-01-19T12:58:58.395Z,48.92
2019-01-19T13:01:28.923Z,47.79
2019-01-19T13:03:59.721Z,49.98
2019-01-19T13:07:02.277Z,51.16
2019-01-19T13:09:40.681Z,54.78
2019-01-19T13:12:25.451Z,52.85
2019-01-19T13:15:59.623Z,51.39
2019-01-19T13:18:53.758Z,50.39
2019-01-19T13:22:34.203Z,50.39
2019-01-19T13:26:02.581Z,49.07
2019-01-19T13:29:45.664Z,48.11
2019-01-19T13:33:24.744Z,47.80
2019-01-19T13:36:32.033Z,49.38
2019-01-19T13:39:21.558Z,50.20
2019-01-19T13:42:51.174Z,51.00
2019-01-19T13:46:01.728Z,50.22
2019-01-19T13:49:25.599Z,49.05
2019-01-19T13:52:21.890Z,45.75
2019-01-19T13:55:47.347Z,50.76
2019-01-19T13:58:46.405Z,48.59
2019-01-19T14:02:17.177Z,51.14
2019-01-19T14:05:33.598Z,51.04
2019-01-19T14:08:21.440Z,49.84
2019-01-19T14:11:55.970Z,48.83
2019-01-19T14:15:20.841Z,50.04
2019-01-19T14:18:49.297Z,51.10
2019-01-19T14:22:32.182Z,50.24
2019-01-19T14:26:09.571Z,50.06
2019-01-19T14:29:28.098Z,52.33
2019-01-19T14:33:07.225Z,53.27
2019-01-19T14:36:29.852Z,56.82
2019-01-19T14:39:41.303Z,58.98
2019-01-19T14:42:53.089Z,57.60
2019-01-19T14:46:01.987Z,57.35
2019-01-19T14:49:12.666Z,55.86
2019-01-19T14:52:06.748Z,55.03
2019-01-19T14:55:13.885Z,53.42
2019-01-19T14:58:14.888Z,57.60
2019-01-19T15:01:38.553Z,57.42
2019-01-19T15:04:58.644Z,59.52
2019-01-19T15:08:22.604Z,60.24
2019-01-19T15:11:34.347Z,58.48
2019-01-19T15:14:44.577Z,58.64
2019-01-19T15:18:06.126Z,60.13
2019-01-19T15:21:29.476Z,59.30
2019-01-19T15:25:00.408Z,61.40
2019-01-19T15:28:08.636Z,64.05
2019-01-19T15:31:19.799Z,65.53
2019-01-19T15:34:51.959Z,66.60
2019-01-19T15:38:10.638Z,65.83
2019-01-19T15:41:40.392Z,66.96
2019-01-19T15:44:37.397Z,68.00
2019-01-19T15:48:21.477Z,69.80
2019-01-19T15:51:58.339Z,70.68
2019-01-19T15:55:23.773Z,71.04
2019-01-19T15:58:42.817Z,70.55
2019-01-19T16:02:07.921Z,72.29
2019-01-19T16:05:38.575Z,72.42
2019-01-19T16:08:52.085Z,71.08
2019-01-19T16:12:01.751Z,71.06
2019-01-19T16:15:40.480Z,71.86
2019-01-19T16:19:05.984Z,71.63
2019-01-19T16:22:25.323Z,71.89
2019-01-19T16:25:51.885Z,73.89
2019-01-19T16:29:29.612Z,73.54
2019-01-19T16:32:46.175Z,74.14
2019-01-19T16:36:25.594Z,75.22
2019-01-19T16:39:46.136Z,74.63
2019-01-19T16:42:56.599Z,74.57
2019-01-19T16:46:17.987Z,75.42
2019-01-19T16:49:27.300Z,75.27
2019-01-19T16:53:01.607Z,76.10
2019-01-19T16:56:23.935Z,77.04
2019-01-19T17:00:15.585Z,77.67
2019-01-19T17:03:19.471Z,77.84
2019-01-19T17:06:03.929Z,77.29
2019-01-19T17:09:21.268Z,77.10
2019-01-19T17:12:42.236Z,76.73
2019-01-19T17:16:37.137Z,77.00
2019-01-19T17:20:05.884Z,77.93
2019-01-19T17:23:57.471Z,78.93
2019-01-19T17:27:35.643Z,79.29
2019-01-19T17:31:13.839Z,79.82
2019-01-19T17:34:29.998Z,80.93
2019-01-19T17:37:45.014Z,80.75
2019-01-19T17:41:18.410Z,80.95
2019-01-19T17:44:52.588Z,81.43
2019-01-19T17:47:35.936Z,81.42
2019-01-19T17:50:52.156Z,81.92
2019-01-19T17:54:12.379Z,81.95
2019-01-19T17:57:25.995Z,81.96
2019-01-19T18:00:55.278Z,81.67
2019-01-19T18:04:10.571Z,82.02
2019-01-19T18:07:33.842Z,81.98
2019-01-19T18:11:05.247Z,82.22
2019-01-19T18:14:40.742Z,82.01
2019-01-19T18:18:08.104Z,81.18
2019-01-19T18:21:35.605Z,81.03
2019-01-19T18:25:02.634Z,81.35
2019-01-19T18:28:12.841Z,81.04
2019-01-19T18:31:42.170Z,80.89
2019-01-19T18:35:00.323Z,79.97
2019-01-19T18:37:47.134Z,79.17
2019-01-19T18:41:23.808Z,79.37
2019-01-19T18:45:01.467Z,79.40
2019-01-19T18:48:13.785Z,79.98
2019-01-19T18:51:48.739Z,80.64
2019-01-19T18:55:05.426Z,81.28
2019-01-19T18:58:31.830Z,81.49
2019-01-19T19:01:45.917Z,81.71
2019-01-19T19:05:32.324Z,81.85
2019-01-19T19:08:56.930Z,81.94
2019-01-19T19:11:59.888Z,81.87
2019-01-19T19:14:58.095Z,82.28
2019-01-19T19:18:32.677Z,82.56
2019-01-19T19:21:54.538Z,81.97
2019-01-19T19:25:36.116Z,81.75
2019-01-19T19:28:54.933Z,81.44
2019-01-19T19:31:59.814Z,81.14
2019-01-19T19:35:25.572Z,80.87
2019-01-19T19:39:01.711Z,81.57
2019-01-19T19:42:48.554Z,82.38
2019-01-19T19:46:31.843Z,82.92
2019-01-19T19:49:57.049Z,82.74
2019-01-19T19:52:28.017Z,82.66
2019-01-19T19:54:56.528Z,82.58
2019-01-19T19:57:26.950Z,82.49
2019-01-19T19:59:57.428Z,82.31
2019-01-19T20:02:27.903Z,82.29
2019-01-19T20:04:58.743Z,81.80
2019-01-19T20:07:29.588Z,81.84
2019-01-19T20:10:00.099Z,81.96
2019-01-19T20:12:30.993Z,82.39
2019-01-19T20:15:01.551Z,82.67
2019-01-19T20:17:32.301Z,82.20
2019-01-19T20:20:02.889Z,81.87
2019-01-19T20:22:33.635Z,81.88
2019-01-19T20:25:04.414Z,81.91
2019-01-19T20:27:34.925Z,81.97
2019-01-19T20:30:07.312Z,82.08
2019-01-19T20:32:37.718Z,81.62
2019-01-19T20:35:08.858Z,82.61
2019-01-19T20:37:39.788Z,82.58
2019-01-19T20:40:10.640Z,82.39
2019-01-19T20:42:41.546Z,82.78
2019-01-19T20:45:12.916Z,83.36
2019-01-19T20:47:43.281Z,83.56
2019-01-19T20:50:13.257Z,83.48
2019-01-19T20:52:43.790Z,82.91
2019-01-19T20:55:14.301Z,82.90
2019-01-19T20:57:44.804Z,82.88
2019-01-19T21:00:17.592Z,82.71
2019-01-19T21:02:48.027Z,82.69
2019-01-19T21:05:18.480Z,82.60
2019-01-19T21:07:48.948Z,82.71
2019-01-19T21:10:19.556Z,82.58
2019-01-19T21:12:50.050Z,82.82
2019-01-19T21:15:20.601Z,83.37
2019-01-19T21:17:55.743Z,83.33
2019-01-19T21:20:23.410Z,83.24
2019-01-19T21:22:53.948Z,82.84
2019-01-19T21:25:24.352Z,83.11
2019-01-19T21:27:54.780Z,82.82
2019-01-19T21:30:25.390Z,82.86
2019-01-19T21:32:55.880Z,83.16
2019-01-19T21:35:26.700Z,83.41
2019-01-19T21:37:57.265Z,83.40
2019-01-19T21:40:27.720Z,83.36
2019-01-19T21:42:58.309Z,83.47
2019-01-19T21:45:29.066Z,83.49
2019-01-19T21:47:59.592Z,83.54
2019-01-19T21:50:30.130Z,83.69
2019-01-19T21:53:00.664Z,83.66
2019-01-19T21:55:31.208Z,83.83
2019-01-19T21:58:01.698Z,83.82
2019-01-19T22:00:32.129Z,83.70
2019-01-19T22:03:02.564Z,83.57
2019-01-19T22:05:33.077Z,83.38
2019-01-19T22:08:04.058Z,83.72
2019-01-19T22:10:34.840Z,83.92
2019-01-19T22:13:05.517Z,84.03
2019-01-19T22:15:36.007Z,84.16
2019-01-19T22:18:06.843Z,83.99
2019-01-19T22:20:37.314Z,83.38
2019-01-19T22:23:07.803Z,83.73
2019-01-19T22:25:38.290Z,83.41
2019-01-19T22:28:09.610Z,82.93
2019-01-19T22:30:40.507Z,82.62
2019-01-19T22:33:12.099Z,82.55
2019-01-19T22:35:42.942Z,82.11
2019-01-19T22:38:13.376Z,81.62
2019-01-19T22:40:43.856Z,81.59
2019-01-19T22:43:20.127Z,81.69
2019-01-19T22:45:50.719Z,81.62
2019-01-19T22:48:21.442Z,81.73
2019-01-19T22:50:51.960Z,81.75
2019-01-19T22:53:22.324Z,81.61
2019-01-19T22:55:52.552Z,81.78
2019-01-19T22:58:23.066Z,81.47
2019-01-19T23:01:32.465Z,81.40
2019-01-19T23:04:03.427Z,80.90
2019-01-19T23:06:34.356Z,81.15
2019-01-19T23:09:09.385Z,80.82
2019-01-19T23:11:39.965Z,80.79
2019-01-19T23:14:12.248Z,81.36
2019-01-19T23:16:42.822Z,81.22
2019-01-19T23:19:13.329Z,81.13
2019-01-19T23:21:43.867Z,81.18
2019-01-19T23:24:14.850Z,81.50
2019-01-19T23:26:45.713Z,81.95
2019-01-19T23:29:16.260Z,82.39
2019-01-19T23:31:46.977Z,82.12
2019-01-19T23:34:17.695Z,81.91
2019-01-19T23:36:48.600Z,81.88
2019-01-19T23:39:19.078Z,81.75
2019-01-19T23:41:49.425Z,81.64
2019-01-19T23:44:19.971Z,81.71
2019-01-19T23:46:50.514Z,81.72
2019-01-19T23:49:21.300Z,81.81
2019-01-19T23:51:51.747Z,81.76
2019-01-19T23:54:22.484Z,81.62
2019-01-19T23:56:53.402Z,81.61
2019-01-19T23:59:24.047Z,81.97
